Grand Canyon National Park Airport
KGCN : now visible

Airfield :











YOU CAN JOIN US ON...

 
LOGIN :

Register | Disclaimer

   EN    FR    IT 

 









Legend :    VFR   Marginal VFR   IFR   Intensive IFR   Very Intensive IFR
Visi :
Ceiling :
>= 8 km
>= 3000ft
5 to 8 km
1000 to 3000 ft
1500m to 5 km
500 to 1000 ft
800 to 1500m
200 to 500 ft
< 800m
< 200 ft
Symbols :   Thunderstorms  Fog  Heavy snow  Heavy precipitations  Wind > 20 kt






- Airport Elevation : 6609 ft
- IATA code : GCN


KGCN - Grand Canyon National Park

CURRENT METAR :
  • 211854Z 21020G32KT 10SM CLR 17/M13 A2986 RMK AO2 PK WND 20036/1830 SLP035 T01671133

EXPIRED METARs :
  • 211754Z 21021G33KT 10SM CLR 16/M15 A2987 RMK AO2 PK WND 20037/1722 SLP053 T01611150 10172 20061 56011
  • 211654Z 19017G32KT 10SM CLR 16/M14 A2988 RMK AO2 PK WND 18033/1644 SLP050 T01611139

TAF KGCN
Valid from the 21 at 18:00 until the 22 at 18:00 UTC


211720Z 2118/2218 21021G35KT P6SM SCT200
FM220200 21010KT P6SM FEW250
KZLA FIR / North America



MET'MAP, your aeronautical weather chart ! - Copyright ORBIFLY December 2007 - Disclaimer

ORBIFLY MET'MAP TEAM :

Programming & Development : Alexandra Zaïnal
Concept & original design : Baudouin d'Aumeries
Assistance for programming : Marc-Olivier Méhu
Technical & hardware support : Manuel Goepfert

Contact : metmap@orbifly.com




SOURCES & CREDITS :

   NOAA       Earth
Advisory